createdAt,value
2018-11-04T00:00:12.592Z,5.15
2018-11-04T00:01:12.834Z,5.13
2018-11-04T00:02:12.829Z,5.15
2018-11-04T00:03:13.356Z,5.20
2018-11-04T00:04:12.433Z,5.13
2018-11-04T00:05:12.379Z,5.33
2018-11-04T00:06:13.403Z,5.34
2018-11-04T00:07:12.835Z,5.37
2018-11-04T00:08:12.810Z,5.46
2018-11-04T00:09:12.803Z,5.46
2018-11-04T00:10:12.211Z,5.52
2018-11-04T00:11:12.781Z,5.57
2018-11-04T00:12:12.424Z,5.64
2018-11-04T00:13:12.140Z,5.63
2018-11-04T00:14:12.849Z,5.80
2018-11-04T00:15:12.064Z,5.80
2018-11-04T00:16:12.083Z,5.77
2018-11-04T00:17:12.348Z,5.84
2018-11-04T00:18:13.679Z,5.85
2018-11-04T00:19:13.678Z,5.95
2018-11-04T00:20:12.807Z,5.92
2018-11-04T00:21:11.893Z,6.00
2018-11-04T00:22:11.822Z,6.05
2018-11-04T00:23:11.837Z,6.09
2018-11-04T00:24:11.816Z,6.09
2018-11-04T00:25:12.340Z,6.03
2018-11-04T00:26:12.319Z,6.07
2018-11-04T00:27:11.769Z,6.10
2018-11-04T00:28:11.881Z,6.05
2018-11-04T00:29:12.279Z,6.06
2018-11-04T00:30:11.667Z,6.06
2018-11-04T00:31:12.276Z,6.20
2018-11-04T00:32:12.281Z,6.15
2018-11-04T00:33:11.529Z,6.15
2018-11-04T00:34:12.280Z,6.13
2018-11-04T00:35:12.681Z,6.17
2018-11-04T00:36:12.279Z,6.17
2018-11-04T00:37:12.285Z,6.10
2018-11-04T00:38:11.837Z,6.15
2018-11-04T00:39:11.794Z,6.13
2018-11-04T00:40:11.449Z,6.13
2018-11-04T00:41:11.777Z,6.14
2018-11-04T00:42:11.774Z,6.18
2018-11-04T00:43:11.815Z,6.14
2018-11-04T00:44:11.340Z,6.15
2018-11-04T00:45:11.159Z,6.07
2018-11-04T00:46:11.810Z,6.14
2018-11-04T00:47:11.853Z,6.24
2018-11-04T00:48:11.337Z,6.09
2018-11-04T00:49:10.973Z,6.07
2018-11-04T00:50:11.789Z,6.14
2018-11-04T00:51:11.782Z,6.07
2018-11-04T00:52:11.777Z,6.15
2018-11-04T00:53:10.861Z,6.15
2018-11-04T00:54:11.350Z,6.17
2018-11-04T00:55:11.281Z,6.28
2018-11-04T00:56:10.721Z,6.29
2018-11-04T00:57:11.295Z,6.29
2018-11-04T00:58:10.849Z,6.42
2018-11-04T00:59:11.280Z,6.36
2018-11-04T01:00:11.403Z,6.46
2018-11-04T01:01:11.301Z,6.46
2018-11-04T01:02:10.524Z,6.39
2018-11-04T01:03:10.833Z,6.40
2018-11-04T01:04:10.569Z,6.44
2018-11-04T01:05:11.337Z,6.37
2018-11-04T01:06:11.282Z,6.46
2018-11-04T01:07:11.297Z,6.44
2018-11-04T01:08:11.278Z,6.54
2018-11-04T01:09:10.446Z,6.51
2018-11-04T01:10:10.786Z,6.61
2018-11-04T01:11:10.781Z,6.65
2018-11-04T01:12:10.196Z,6.68
2018-11-04T01:13:10.789Z,6.72
2018-11-04T01:14:10.344Z,6.68
2018-11-04T01:15:10.336Z,6.76
2018-11-04T01:16:10.782Z,6.86
2018-11-04T01:17:10.031Z,6.76
2018-11-04T01:18:10.787Z,6.82
2018-11-04T01:19:09.966Z,6.97
2018-11-04T01:20:09.983Z,6.95
2018-11-04T01:21:10.357Z,6.95
2018-11-04T01:22:10.782Z,7.00
2018-11-04T01:23:09.849Z,7.04
2018-11-04T01:24:10.833Z,7.05
2018-11-04T01:25:10.282Z,7.11
2018-11-04T01:26:09.844Z,7.04
2018-11-04T01:27:10.294Z,7.16
2018-11-04T01:28:10.289Z,7.16
2018-11-04T01:29:09.715Z,7.16
2018-11-04T01:30:09.669Z,7.26
2018-11-04T01:31:09.583Z,7.19
2018-11-04T01:32:10.282Z,7.26
2018-11-04T01:33:10.308Z,7.22
2018-11-04T01:34:09.855Z,7.23
2018-11-04T01:35:09.502Z,7.40
2018-11-04T01:36:10.285Z,7.36
2018-11-04T01:37:10.288Z,7.40
2018-11-04T01:38:10.285Z,7.48
2018-11-04T01:39:09.848Z,7.40
2018-11-04T01:40:09.845Z,7.37
2018-11-04T01:41:09.271Z,7.52
2018-11-04T01:42:09.787Z,7.49
2018-11-04T01:43:09.208Z,7.52
2018-11-04T01:44:09.171Z,7.59
2018-11-04T01:45:09.192Z,7.56
2018-11-04T01:46:09.791Z,7.61
2018-11-04T01:47:09.786Z,7.59
2018-11-04T01:48:09.790Z,7.70
2018-11-04T01:49:09.348Z,7.59
2018-11-04T01:50:09.784Z,7.63
2018-11-04T01:51:09.346Z,7.71
2018-11-04T01:52:08.925Z,7.70
2018-11-04T01:53:09.784Z,7.74
2018-11-04T01:54:09.790Z,7.77
2018-11-04T01:55:09.783Z,7.78
2018-11-04T01:56:08.842Z,7.77
2018-11-04T01:57:08.809Z,7.80
2018-11-04T01:58:09.291Z,7.89
2018-11-04T01:59:09.283Z,7.89
2018-11-04T02:00:08.666Z,7.91
2018-11-04T02:01:08.866Z,7.91
2018-11-04T02:02:09.284Z,7.92
2018-11-04T02:03:09.286Z,7.96
2018-11-04T02:04:09.290Z,7.99
2018-11-04T02:05:09.292Z,7.93
2018-11-04T02:06:08.850Z,8.06
2018-11-04T02:07:09.286Z,7.98
2018-11-04T02:08:09.290Z,7.95
2018-11-04T02:09:09.288Z,8.06
2018-11-04T02:10:09.286Z,8.01
2018-11-04T02:11:08.377Z,8.10
2018-11-04T02:12:08.353Z,8.11
2018-11-04T02:13:08.257Z,8.10
2018-11-04T02:14:08.794Z,8.13
2018-11-04T02:15:08.207Z,8.11
2018-11-04T02:16:08.240Z,8.21
2018-11-04T02:17:08.788Z,8.28
2018-11-04T02:18:08.108Z,8.29
2018-11-04T02:19:08.788Z,8.19
2018-11-04T02:20:08.805Z,8.24
2018-11-04T02:21:08.342Z,8.25
2018-11-04T02:22:08.801Z,8.31
2018-11-04T02:23:08.799Z,8.31
2018-11-04T02:24:08.798Z,8.35
2018-11-04T02:25:08.879Z,8.39
2018-11-04T02:26:07.861Z,8.40
2018-11-04T02:27:08.444Z,8.44
2018-11-04T02:28:08.302Z,8.44
2018-11-04T02:29:08.297Z,8.46
2018-11-04T02:30:09.699Z,8.46
2018-11-04T02:31:07.707Z,8.50
2018-11-04T02:32:07.851Z,8.54
2018-11-04T02:33:08.292Z,8.62
2018-11-04T02:34:08.291Z,8.60
2018-11-04T02:35:08.292Z,8.60
2018-11-04T02:36:07.861Z,8.69
2018-11-04T02:37:07.521Z,8.67
2018-11-04T02:38:07.523Z,8.72
2018-11-04T02:39:08.340Z,8.65
2018-11-04T02:40:08.293Z,8.74
2018-11-04T02:41:07.856Z,8.68
2018-11-04T02:42:08.290Z,8.77
2018-11-04T02:43:07.342Z,8.80
2018-11-04T02:44:07.797Z,8.72
2018-11-04T02:45:07.262Z,8.76
2018-11-04T02:46:07.307Z,8.76
2018-11-04T02:47:07.937Z,8.76
2018-11-04T02:48:07.179Z,8.76
2018-11-04T02:49:07.813Z,8.85
2018-11-04T02:50:07.802Z,8.82
2018-11-04T02:51:07.118Z,8.82
2018-11-04T02:52:07.808Z,8.86
2018-11-04T02:53:08.264Z,8.87
2018-11-04T02:54:07.898Z,8.89
2018-11-04T02:55:07.797Z,8.90
2018-11-04T02:56:07.800Z,8.92
2018-11-04T02:57:07.350Z,8.92
2018-11-04T02:58:07.803Z,8.97
2018-11-04T02:59:06.840Z,8.94
2018-11-04T03:00:06.851Z,8.95
2018-11-04T03:01:07.312Z,8.97
2018-11-04T03:02:07.331Z,9.05
2018-11-04T03:03:06.711Z,9.03
2018-11-04T03:04:06.690Z,9.05
2018-11-04T03:05:06.851Z,9.01
2018-11-04T03:06:07.300Z,9.04
2018-11-04T03:07:09.305Z,9.04
2018-11-04T03:08:07.300Z,9.09
2018-11-04T03:09:07.297Z,9.08
2018-11-04T03:10:06.855Z,9.12
2018-11-04T03:11:07.327Z,9.08
2018-11-04T03:12:06.434Z,9.05
2018-11-04T03:13:06.429Z,9.04
2018-11-04T03:14:06.881Z,9.09
2018-11-04T03:15:06.336Z,9.08
2018-11-04T03:16:07.300Z,9.11
2018-11-04T03:17:06.795Z,9.16
2018-11-04T03:18:06.358Z,9.20
2018-11-04T03:19:06.798Z,9.09
2018-11-04T03:20:06.184Z,9.11
2018-11-04T03:21:06.366Z,9.14
2018-11-04T03:22:06.364Z,9.14
2018-11-04T03:23:06.800Z,9.11
2018-11-04T03:24:06.124Z,9.26
2018-11-04T03:25:06.367Z,9.26
2018-11-04T03:26:06.805Z,9.17
2018-11-04T03:27:05.975Z,9.23
2018-11-04T03:28:05.949Z,9.20
2018-11-04T03:29:06.801Z,9.32
2018-11-04T03:30:07.175Z,9.34
2018-11-04T03:31:05.989Z,9.26
2018-11-04T03:32:05.819Z,9.27
2018-11-04T03:33:06.308Z,9.37
2018-11-04T03:34:06.374Z,9.23
2018-11-04T03:35:06.301Z,9.30
2018-11-04T03:36:05.869Z,9.38
2018-11-04T03:37:05.672Z,9.34
2018-11-04T03:38:06.300Z,9.30
2018-11-04T03:39:05.865Z,9.35
2018-11-04T03:40:06.313Z,9.34
2018-11-04T03:41:05.540Z,9.30
2018-11-04T03:42:05.518Z,9.35
2018-11-04T03:43:05.477Z,9.39
2018-11-04T03:44:05.933Z,9.35
2018-11-04T03:45:05.424Z,9.39
2018-11-04T03:46:05.857Z,9.42
2018-11-04T03:47:05.366Z,9.44
2018-11-04T03:48:06.311Z,9.39
2018-11-04T03:49:05.803Z,9.42
2018-11-04T03:50:05.801Z,9.48
2018-11-04T03:51:05.280Z,9.48
2018-11-04T03:52:05.808Z,9.50
2018-11-04T03:53:05.801Z,9.47
2018-11-04T03:54:05.201Z,9.48
2018-11-04T03:55:05.804Z,9.47
2018-11-04T03:56:05.374Z,9.45
2018-11-04T03:57:05.056Z,9.59
2018-11-04T03:58:05.811Z,9.56
2018-11-04T03:59:05.803Z,9.56
2018-11-04T04:00:04.960Z,9.55
2018-11-04T04:01:04.998Z,9.57
2018-11-04T04:02:05.811Z,9.55
2018-11-04T04:03:05.806Z,9.57
2018-11-04T04:04:04.840Z,9.56
2018-11-04T04:05:04.820Z,9.63
2018-11-04T04:06:04.871Z,9.59
2018-11-04T04:07:04.871Z,9.60
2018-11-04T04:08:05.311Z,9.59
2018-11-04T04:09:04.692Z,9.62
2018-11-04T04:10:05.314Z,9.57
2018-11-04T04:11:04.659Z,9.66
2018-11-04T04:12:04.869Z,9.66
2018-11-04T04:13:05.309Z,9.60
2018-11-04T04:14:05.304Z,9.57
2018-11-04T04:15:04.510Z,9.47
2018-11-04T04:16:04.860Z,9.63
2018-11-04T04:17:05.315Z,9.57
2018-11-04T04:18:05.300Z,9.63
2018-11-04T04:19:05.318Z,9.64
2018-11-04T04:20:05.317Z,9.67
2018-11-04T04:21:04.867Z,9.71
2018-11-04T04:22:04.350Z,9.75
2018-11-04T04:23:04.332Z,9.71
2018-11-04T04:24:04.811Z,9.70
2018-11-04T04:25:04.838Z,9.74
2018-11-04T04:26:04.810Z,9.70
2018-11-04T04:27:04.807Z,9.77
2018-11-04T04:28:04.175Z,9.67
2018-11-04T04:29:04.094Z,9.77
2018-11-04T04:30:04.054Z,9.72
2018-11-04T04:31:04.048Z,9.67
2018-11-04T04:32:04.812Z,9.77
2018-11-04T04:33:06.100Z,9.72
2018-11-04T04:34:04.829Z,9.74
2018-11-04T04:35:04.833Z,9.88
2018-11-04T04:36:04.822Z,9.84
2018-11-04T04:37:04.374Z,9.85
2018-11-04T04:38:03.836Z,9.85
2018-11-04T04:39:03.828Z,9.82
2018-11-04T04:40:04.521Z,9.84
2018-11-04T04:41:04.310Z,9.82
2018-11-04T04:42:04.322Z,9.85
2018-11-04T04:43:04.321Z,9.93
2018-11-04T04:44:03.898Z,9.90
2018-11-04T04:45:03.609Z,9.88
2018-11-04T04:46:04.315Z,9.96
2018-11-04T04:47:03.539Z,9.93
2018-11-04T04:48:04.312Z,10.00
2018-11-04T04:49:03.901Z,9.93
2018-11-04T04:50:04.312Z,9.99
2018-11-04T04:51:04.313Z,10.02
2018-11-04T04:52:03.412Z,10.00
2018-11-04T04:53:04.341Z,9.99
2018-11-04T04:54:03.903Z,9.93
2018-11-04T04:55:03.305Z,9.93
2018-11-04T04:56:03.412Z,9.99
2018-11-04T04:57:03.711Z,9.96
2018-11-04T04:58:03.229Z,9.96
2018-11-04T04:59:03.816Z,9.99
2018-11-04T05:00:03.158Z,9.96
2018-11-04T05:01:03.230Z,9.90
2018-11-04T05:02:03.105Z,9.93
2018-11-04T05:03:03.812Z,9.96
2018-11-04T05:04:03.818Z,9.95
2018-11-04T05:05:03.063Z,10.00
2018-11-04T05:06:03.818Z,9.99
2018-11-04T05:07:03.810Z,9.93
2018-11-04T05:08:02.907Z,10.00
2018-11-04T05:09:03.817Z,10.03
2018-11-04T05:10:02.888Z,9.99
2018-11-04T05:11:02.836Z,10.08
2018-11-04T05:12:03.369Z,9.99
2018-11-04T05:13:02.813Z,10.03
2018-11-04T05:14:02.738Z,10.00
2018-11-04T05:15:02.698Z,10.05
2018-11-04T05:16:02.671Z,10.00
2018-11-04T05:17:03.317Z,10.08
2018-11-04T05:18:02.872Z,10.11
2018-11-04T05:19:03.328Z,10.00
2018-11-04T05:20:03.315Z,10.11
2018-11-04T05:21:03.313Z,10.07
2018-11-04T05:22:04.215Z,10.11
2018-11-04T05:23:02.537Z,10.05
2018-11-04T05:24:02.439Z,10.14
2018-11-04T05:25:03.350Z,10.15
2018-11-04T05:26:02.886Z,10.20
2018-11-04T05:27:03.329Z,10.17
2018-11-04T05:28:02.378Z,10.20
2018-11-04T05:29:02.373Z,10.20
2018-11-04T05:30:02.247Z,10.18
2018-11-04T05:31:02.228Z,10.15
2018-11-04T05:32:02.188Z,10.18
2018-11-04T05:33:02.164Z,10.18
2018-11-04T05:34:02.201Z,10.17
2018-11-04T05:35:02.817Z,10.15
2018-11-04T05:36:02.823Z,10.13
2018-11-04T05:37:02.047Z,10.20
2018-11-04T05:38:02.011Z,10.18
2018-11-04T05:39:02.047Z,10.20
2018-11-04T05:40:01.953Z,10.18
2018-11-04T05:41:02.391Z,10.23
2018-11-04T05:42:02.814Z,10.18
2018-11-04T05:43:02.827Z,10.21
2018-11-04T05:44:01.833Z,10.21
2018-11-04T05:45:01.854Z,10.14
2018-11-04T05:46:02.338Z,10.25
2018-11-04T05:47:02.335Z,10.23
2018-11-04T05:48:01.739Z,10.23
2018-11-04T05:49:02.319Z,10.28
2018-11-04T05:50:01.707Z,10.29
2018-11-04T05:51:01.627Z,10.36
2018-11-04T05:52:01.876Z,10.25
2018-11-04T05:53:02.344Z,10.32
2018-11-04T05:54:02.323Z,10.36
2018-11-04T05:55:01.521Z,10.31
2018-11-04T05:56:01.525Z,10.29
2018-11-04T05:57:02.329Z,10.29
2018-11-04T05:58:02.325Z,10.29
2018-11-04T05:59:02.319Z,10.32
2018-11-04T06:00:01.407Z,10.31
2018-11-04T06:01:02.321Z,10.35
2018-11-04T06:02:01.820Z,10.36
2018-11-04T06:03:01.262Z,10.39
2018-11-04T06:04:01.289Z,10.32
2018-11-04T06:05:01.214Z,10.39
2018-11-04T06:06:01.180Z,10.39
2018-11-04T06:07:01.147Z,10.49
2018-11-04T06:08:01.390Z,10.46
2018-11-04T06:09:01.101Z,10.42
2018-11-04T06:10:01.825Z,10.44
2018-11-04T06:11:01.830Z,10.49
2018-11-04T06:12:01.041Z,10.54
2018-11-04T06:13:01.401Z,10.41
2018-11-04T06:14:01.834Z,10.54
2018-11-04T06:15:00.986Z,10.41
2018-11-04T06:16:01.382Z,10.49
2018-11-04T06:17:01.382Z,10.49
2018-11-04T06:18:01.331Z,10.49
2018-11-04T06:19:01.337Z,10.47
2018-11-04T06:20:00.801Z,10.49
2018-11-04T06:21:02.257Z,10.46
2018-11-04T06:22:01.794Z,10.47
2018-11-04T06:23:01.327Z,10.49
2018-11-04T06:24:01.323Z,10.49
2018-11-04T06:25:00.608Z,10.49
2018-11-04T06:26:01.325Z,10.49
2018-11-04T06:27:00.617Z,10.52
2018-11-04T06:28:00.595Z,10.52
2018-11-04T06:29:01.339Z,10.49
2018-11-04T06:30:00.462Z,10.47
2018-11-04T06:31:00.439Z,10.44
2018-11-04T06:32:00.410Z,10.51
2018-11-04T06:33:00.903Z,10.52
2018-11-04T06:34:00.353Z,10.54
2018-11-04T06:35:00.320Z,10.44
2018-11-04T06:36:00.279Z,10.51
2018-11-04T06:37:00.833Z,10.55
2018-11-04T06:38:00.402Z,10.51
2018-11-04T06:39:00.202Z,10.47
2018-11-04T06:40:00.170Z,10.58
2018-11-04T06:41:00.170Z,10.54
2018-11-04T06:42:00.834Z,10.47
2018-11-04T06:43:00.389Z,10.52
2018-11-04T06:44:00.832Z,10.59
2018-11-04T06:45:00.027Z,10.58
2018-11-04T06:46:00.834Z,10.61
2018-11-04T06:46:59.961Z,10.59
2018-11-04T06:48:00.464Z,10.59
2018-11-04T06:49:00.390Z,10.54
2018-11-04T06:50:00.842Z,10.59
2018-11-04T06:51:00.832Z,10.69
2018-11-04T06:52:00.330Z,10.72
2018-11-04T06:53:00.336Z,10.69
2018-11-04T06:53:59.792Z,10.67
2018-11-04T06:54:59.708Z,10.75
2018-11-04T06:55:59.683Z,10.80
2018-11-04T06:56:59.656Z,10.80
2018-11-04T06:57:59.625Z,10.91
2018-11-04T06:58:59.904Z,10.85
2018-11-04T06:59:59.624Z,10.83
2018-11-04T07:01:00.324Z,10.92
2018-11-04T07:02:00.332Z,10.88
2018-11-04T07:02:59.495Z,10.84
2018-11-04T07:03:59.889Z,10.87
2018-11-04T07:04:59.428Z,10.92
2018-11-04T07:05:59.388Z,10.95
2018-11-04T07:06:59.377Z,11.00
2018-11-04T07:07:59.393Z,11.00
2018-11-04T07:08:59.450Z,10.92
2018-11-04T07:09:59.268Z,11.06
2018-11-04T07:10:59.257Z,11.00
2018-11-04T07:11:59.850Z,10.98
2018-11-04T07:12:59.234Z,10.97
2018-11-04T07:13:59.211Z,10.94
2018-11-04T07:14:59.135Z,10.97
2018-11-04T07:15:59.128Z,11.03
2018-11-04T07:16:59.840Z,11.09
2018-11-04T07:17:59.919Z,11.06
2018-11-04T07:18:59.398Z,11.16
2018-11-04T07:19:59.867Z,11.08
2018-11-04T07:20:59.861Z,11.12
2018-11-04T07:21:58.935Z,11.06
2018-11-04T07:22:58.897Z,11.09
2018-11-04T07:23:58.920Z,11.09
2018-11-04T07:24:58.883Z,11.15
2018-11-04T07:25:59.340Z,11.12
2018-11-04T07:26:58.789Z,11.15
2018-11-04T07:27:59.332Z,11.21
2018-11-04T07:28:58.738Z,11.09
2018-11-04T07:29:58.754Z,11.12
2018-11-04T07:30:58.770Z,11.15
2018-11-04T07:31:58.672Z,11.21
2018-11-04T07:32:58.593Z,11.18
2018-11-04T07:33:58.589Z,11.18
2018-11-04T07:34:58.540Z,11.13
2018-11-04T07:35:58.895Z,11.20
2018-11-04T07:36:58.480Z,11.12
2018-11-04T07:37:59.341Z,11.20
2018-11-04T07:38:59.338Z,11.24
2018-11-04T07:39:58.403Z,11.18
2018-11-04T07:40:58.894Z,11.24
2018-11-04T07:41:58.396Z,11.38
2018-11-04T07:42:58.861Z,11.39
2018-11-04T07:43:58.837Z,11.45
2018-11-04T07:44:58.265Z,11.46
2018-11-04T07:45:58.842Z,11.46
2018-11-04T07:46:58.400Z,11.52
2018-11-04T07:47:58.846Z,11.49
2018-11-04T07:48:58.156Z,11.53
2018-11-04T07:49:58.877Z,11.56
2018-11-04T07:50:58.078Z,11.53
2018-11-04T07:51:58.411Z,11.57
2018-11-04T07:52:58.838Z,11.59
2018-11-04T07:53:57.999Z,11.64
2018-11-04T07:54:58.855Z,11.53
2018-11-04T07:55:58.855Z,11.67
2018-11-04T07:56:58.484Z,11.68
2018-11-04T07:57:57.869Z,11.61
2018-11-04T07:58:58.341Z,11.68
2018-11-04T07:59:57.819Z,11.67
2018-11-04T08:00:57.843Z,11.63
2018-11-04T08:01:57.801Z,11.64
2018-11-04T08:02:57.728Z,11.64
2018-11-04T08:03:57.702Z,11.64
2018-11-04T08:04:57.678Z,11.67
2018-11-04T08:05:57.640Z,11.67
2018-11-04T08:06:57.659Z,11.66
2018-11-04T08:07:57.585Z,11.66
2018-11-04T08:08:57.605Z,11.60
2018-11-04T08:09:57.527Z,11.63
2018-11-04T08:10:57.493Z,11.56
2018-11-04T08:11:58.353Z,11.59
2018-11-04T08:12:58.429Z,11.59
2018-11-04T08:13:58.355Z,11.60
2018-11-04T08:14:57.388Z,11.59
2018-11-04T08:15:57.401Z,11.73
2018-11-04T08:16:57.400Z,11.70
2018-11-04T08:17:57.852Z,11.78
2018-11-04T08:18:57.267Z,11.76
2018-11-04T08:19:57.355Z,11.82
2018-11-04T08:20:57.260Z,11.81
2018-11-04T08:21:57.184Z,11.78
2018-11-04T08:22:57.844Z,11.71
2018-11-04T08:23:57.168Z,11.68
2018-11-04T08:24:57.153Z,11.71
2018-11-04T08:25:57.071Z,11.67
2018-11-04T08:26:57.036Z,11.64
2018-11-04T08:27:57.013Z,11.59
2018-11-04T08:28:56.974Z,11.59
2018-11-04T08:29:57.011Z,11.67
2018-11-04T08:30:56.917Z,11.60
2018-11-04T08:31:56.895Z,11.57
2018-11-04T08:32:56.885Z,11.57
2018-11-04T08:33:57.348Z,11.64
2018-11-04T08:34:56.864Z,11.57
2018-11-04T08:35:56.780Z,11.64
2018-11-04T08:36:56.754Z,11.63
2018-11-04T08:37:56.733Z,11.66
2018-11-04T08:38:57.365Z,11.73
2018-11-04T08:39:56.768Z,11.67
2018-11-04T08:40:56.657Z,11.78
2018-11-04T08:41:57.395Z,11.75
2018-11-04T08:42:57.347Z,11.79
2018-11-04T08:43:57.348Z,11.88
2018-11-04T08:44:56.574Z,11.98
2018-11-04T08:45:57.025Z,11.98
2018-11-04T08:46:56.466Z,12.03
2018-11-04T08:47:56.449Z,12.01
2018-11-04T08:48:56.408Z,11.98
2018-11-04T08:49:56.383Z,11.98
2018-11-04T08:50:56.401Z,12.11
2018-11-04T08:51:56.856Z,12.10
2018-11-04T08:52:56.287Z,12.13
2018-11-04T08:53:56.267Z,12.18
2018-11-04T08:54:56.251Z,12.18
2018-11-04T08:55:56.252Z,12.20
2018-11-04T08:56:56.178Z,12.23
2018-11-04T08:57:56.196Z,12.18
2018-11-04T08:58:56.124Z,12.19
2018-11-04T08:59:56.097Z,12.25
2018-11-04T09:00:56.113Z,12.34
2018-11-04T09:01:56.032Z,12.40
2018-11-04T09:02:56.007Z,12.38
2018-11-04T09:03:55.975Z,12.38
2018-11-04T09:04:55.951Z,12.40
2018-11-04T09:05:56.009Z,12.52
2018-11-04T09:06:55.933Z,12.52
2018-11-04T09:07:55.865Z,12.56
2018-11-04T09:08:56.349Z,12.44
2018-11-04T09:09:56.346Z,12.52
2018-11-04T09:10:55.778Z,12.45
2018-11-04T09:11:55.800Z,12.52
2018-11-04T09:12:55.729Z,12.52
2018-11-04T09:13:55.697Z,12.52
2018-11-04T09:14:55.662Z,12.56
2018-11-04T09:15:56.349Z,12.55
2018-11-04T09:16:55.900Z,12.48
2018-11-04T09:17:56.350Z,12.43
2018-11-04T09:18:56.348Z,12.40
2018-11-04T09:19:56.359Z,12.33
2018-11-04T09:20:55.514Z,12.38
2018-11-04T09:21:55.671Z,12.36
2018-11-04T09:22:55.439Z,12.47
2018-11-04T09:23:55.420Z,12.48
2018-11-04T09:24:55.385Z,12.52
2018-11-04T09:25:55.363Z,12.66
2018-11-04T09:26:55.376Z,12.73
2018-11-04T09:27:55.303Z,12.71
2018-11-04T09:28:55.333Z,12.74
2018-11-04T09:29:55.255Z,12.70
2018-11-04T09:30:55.219Z,12.84
2018-11-04T09:31:55.278Z,12.86
2018-11-04T09:32:55.168Z,12.84
2018-11-04T09:33:55.189Z,12.89
2018-11-04T09:34:55.981Z,12.91
2018-11-04T09:35:55.274Z,12.91
2018-11-04T09:36:55.101Z,12.92
2018-11-04T09:37:55.043Z,12.91
2018-11-04T09:38:54.995Z,12.96
2018-11-04T09:39:55.022Z,12.88
2018-11-04T09:40:54.955Z,12.95
2018-11-04T09:41:54.940Z,12.94
2018-11-04T09:42:54.889Z,12.94
2018-11-04T09:43:54.863Z,13.01
2018-11-04T09:44:54.876Z,12.89
2018-11-04T09:45:54.858Z,13.03
2018-11-04T09:46:54.778Z,13.10
2018-11-04T09:47:54.752Z,13.11
2018-11-04T09:48:54.766Z,13.13
2018-11-04T09:49:54.757Z,13.06
2018-11-04T09:50:54.667Z,13.14
2018-11-04T09:51:54.696Z,13.14
2018-11-04T09:52:54.622Z,13.24
2018-11-04T09:53:54.587Z,13.19
2018-11-04T09:54:54.611Z,13.19
2018-11-04T09:55:54.528Z,13.27
2018-11-04T09:56:54.513Z,13.27
2018-11-04T09:57:54.475Z,13.39
2018-11-04T09:58:54.451Z,13.25
2018-11-04T09:59:54.468Z,13.32
2018-11-04T10:00:54.395Z,13.28
2018-11-04T10:01:54.370Z,13.29
2018-11-04T10:02:54.345Z,13.32
2018-11-04T10:03:54.313Z,13.25
2018-11-04T10:04:54.336Z,13.27
2018-11-04T10:05:54.265Z,13.27
2018-11-04T10:06:54.329Z,13.24
2018-11-04T10:07:54.209Z,13.19
2018-11-04T10:08:54.175Z,13.14
2018-11-04T10:09:54.151Z,13.20
2018-11-04T10:10:54.118Z,13.14
2018-11-04T10:11:54.144Z,13.25
2018-11-04T10:12:54.070Z,13.28
2018-11-04T10:13:54.035Z,13.32
2018-11-04T10:14:54.055Z,13.35
2018-11-04T10:15:53.985Z,13.28
2018-11-04T10:16:53.954Z,13.29
2018-11-04T10:17:54.413Z,13.27
2018-11-04T10:18:55.006Z,13.45
2018-11-04T10:19:54.215Z,13.44
2018-11-04T10:20:54.242Z,13.44
2018-11-04T10:21:53.860Z,13.40
2018-11-04T10:22:54.367Z,13.42
2018-11-04T10:23:54.362Z,13.39
2018-11-04T10:24:53.803Z,13.42
2018-11-04T10:25:53.739Z,13.53
2018-11-04T10:26:54.365Z,13.45
2018-11-04T10:27:53.659Z,13.55
2018-11-04T10:28:53.635Z,13.57
2018-11-04T10:29:53.922Z,13.47
2018-11-04T10:30:53.577Z,13.58
2018-11-04T10:31:53.560Z,13.39
2018-11-04T10:32:53.555Z,13.44
2018-11-04T10:33:53.488Z,13.55
2018-11-04T10:34:53.507Z,13.44
2018-11-04T10:35:53.479Z,13.51
2018-11-04T10:36:53.416Z,13.45
2018-11-04T10:37:53.380Z,13.57
2018-11-04T10:38:53.353Z,13.44
2018-11-04T10:39:53.339Z,13.47
2018-11-04T10:40:53.346Z,13.47
2018-11-04T10:41:53.274Z,13.44
2018-11-04T10:42:53.288Z,13.48
2018-11-04T10:43:53.216Z,13.48
2018-11-04T10:44:53.238Z,13.48
2018-11-04T10:45:53.207Z,13.40
2018-11-04T10:46:53.137Z,13.27
2018-11-04T10:47:53.147Z,13.25
2018-11-04T10:48:53.080Z,13.27
2018-11-04T10:49:53.152Z,13.28
2018-11-04T10:50:53.071Z,13.27
2018-11-04T10:51:53.000Z,13.29
2018-11-04T10:52:52.975Z,13.25
2018-11-04T10:53:52.946Z,13.39
2018-11-04T10:54:52.916Z,13.47
2018-11-04T10:55:52.958Z,13.51
2018-11-04T10:56:52.860Z,13.51
2018-11-04T10:57:52.859Z,13.62
2018-11-04T10:58:52.835Z,13.75
2018-11-04T10:59:52.785Z,13.73
2018-11-04T11:00:52.800Z,13.70
2018-11-04T11:01:52.727Z,13.70
2018-11-04T11:02:53.386Z,13.63
2018-11-04T11:03:52.922Z,13.70
2018-11-04T11:04:52.643Z,13.73
2018-11-04T11:05:52.622Z,13.83
2018-11-04T11:06:52.664Z,13.83
2018-11-04T11:07:52.564Z,13.76
2018-11-04T11:08:52.540Z,13.84
2018-11-04T11:09:52.518Z,13.87
2018-11-04T11:10:52.609Z,13.87
2018-11-04T11:11:52.491Z,13.86
2018-11-04T11:12:52.431Z,13.72
2018-11-04T11:13:52.404Z,13.76
2018-11-04T11:14:52.383Z,13.70
2018-11-04T11:15:52.402Z,13.69
2018-11-04T11:16:52.325Z,13.83
2018-11-04T11:17:52.296Z,13.68
2018-11-04T11:18:52.336Z,13.66
2018-11-04T11:19:52.255Z,13.73
2018-11-04T11:20:52.258Z,13.73
2018-11-04T11:21:52.189Z,13.72
2018-11-04T11:22:52.370Z,13.69
2018-11-04T11:23:52.129Z,13.70
2018-11-04T11:24:52.108Z,13.70
2018-11-04T11:25:52.137Z,13.70
2018-11-04T11:26:52.048Z,13.68
2018-11-04T11:27:52.029Z,13.69
2018-11-04T11:28:52.035Z,13.70
2018-11-04T11:29:52.024Z,13.70
2018-11-04T11:30:52.009Z,13.62
2018-11-04T11:31:51.918Z,13.55
2018-11-04T11:32:51.909Z,13.54
2018-11-04T11:33:51.861Z,13.54
2018-11-04T11:34:51.837Z,13.57
2018-11-04T11:35:51.866Z,13.65
2018-11-04T11:36:52.783Z,13.57
2018-11-04T11:37:51.843Z,13.62
2018-11-04T11:38:51.761Z,13.60
2018-11-04T11:39:51.696Z,13.69
2018-11-04T11:40:51.682Z,13.66
2018-11-04T11:41:51.749Z,13.65
2018-11-04T11:42:51.614Z,13.54
2018-11-04T11:43:51.590Z,13.44
2018-11-04T11:44:51.680Z,13.42
2018-11-04T11:45:51.539Z,13.24
2018-11-04T11:46:51.551Z,13.13
2018-11-04T11:47:52.404Z,13.21
2018-11-04T11:48:51.499Z,13.19
2018-11-04T11:49:51.426Z,13.14
2018-11-04T11:50:51.395Z,13.19
2018-11-04T11:51:51.424Z,13.21
2018-11-04T11:52:51.424Z,13.21
2018-11-04T11:53:51.360Z,13.27
2018-11-04T11:54:51.365Z,13.27
2018-11-04T11:55:51.315Z,13.24
2018-11-04T11:56:51.880Z,13.27
2018-11-04T11:57:51.216Z,13.21
2018-11-04T11:58:51.226Z,13.14
2018-11-04T11:59:51.151Z,13.17
2018-11-04T12:00:51.171Z,13.14
2018-11-04T12:01:51.091Z,13.25
2018-11-04T12:02:51.068Z,13.21
2018-11-04T12:03:51.054Z,13.32
2018-11-04T12:04:51.010Z,13.28
2018-11-04T12:05:51.065Z,13.25
2018-11-04T12:06:51.883Z,13.28
2018-11-04T12:07:50.927Z,13.25
2018-11-04T12:08:50.905Z,13.28
2018-11-04T12:09:50.882Z,13.28
2018-11-04T12:10:50.899Z,13.42
2018-11-04T12:11:50.816Z,13.37
2018-11-04T12:12:50.796Z,13.40
2018-11-04T12:13:50.766Z,13.28
2018-11-04T12:14:50.736Z,13.25
2018-11-04T12:15:50.755Z,13.21
2018-11-04T12:16:50.740Z,13.24
2018-11-04T12:17:50.666Z,13.28
2018-11-04T12:18:50.626Z,13.32
2018-11-04T12:19:50.600Z,13.16
2018-11-04T12:20:50.577Z,13.24
2018-11-04T12:21:50.595Z,13.13
2018-11-04T12:22:50.516Z,13.14
2018-11-04T12:23:50.591Z,13.03
2018-11-04T12:24:51.390Z,13.11
2018-11-04T12:25:50.435Z,13.10
2018-11-04T12:26:50.449Z,13.09
2018-11-04T12:27:50.418Z,13.11
2018-11-04T12:28:50.360Z,13.09
2018-11-04T12:29:50.323Z,13.11
2018-11-04T12:30:50.308Z,13.16
2018-11-04T12:31:50.266Z,13.17
2018-11-04T12:32:50.290Z,13.17
2018-11-04T12:33:50.228Z,13.14
2018-11-04T12:34:50.186Z,13.17
2018-11-04T12:35:50.161Z,13.19
2018-11-04T12:36:50.130Z,13.17
2018-11-04T12:37:50.158Z,13.13
2018-11-04T12:38:50.078Z,13.10
2018-11-04T12:39:50.114Z,13.11
2018-11-04T12:40:50.021Z,13.10
2018-11-04T12:41:49.992Z,13.10
2018-11-04T12:42:50.006Z,13.13
2018-11-04T12:43:49.996Z,13.10
2018-11-04T12:44:49.959Z,13.14
2018-11-04T12:45:50.028Z,13.16
2018-11-04T12:46:49.854Z,13.16
2018-11-04T12:47:49.825Z,13.25
2018-11-04T12:48:49.867Z,13.29
2018-11-04T12:49:49.773Z,13.28
2018-11-04T12:50:49.745Z,13.24
2018-11-04T12:51:49.714Z,13.31
2018-11-04T12:52:49.688Z,13.32
2018-11-04T12:53:49.705Z,13.42
2018-11-04T12:54:49.643Z,13.44
2018-11-04T12:55:49.713Z,13.40
2018-11-04T12:56:49.578Z,13.37
2018-11-04T12:57:49.550Z,13.39
2018-11-04T12:58:49.527Z,13.42
2018-11-04T12:59:49.530Z,13.29
2018-11-04T13:00:49.514Z,13.32
2018-11-04T13:01:49.483Z,13.17